Airfield :
LOGIN :

Register | Disclaimer

   EN    FR    IT 

 










Legend :    VFR   Marginal VFR   IFR   Intensive IFR   Very Intensive IFR
Visi :
Ceiling :
>= 8 km
>= 3000ft
5 to 8 km
1000 to 3000 ft
1500m to 5 km
500 to 1000 ft
800 to 1500m
200 to 500 ft
< 800m
< 200 ft
Symbols :   Thunderstorms  Fog  Heavy snow  Heavy precipitations  Wind > 20 kt
SIGMETs :     Misc.  Thunderstorms  Icing  Turbulence  Mountain Waves  Volcanic Ashes







- Airport Elevation : 400 ft
- IATA code : BNX


LQBK - Banja Luka

CURRENT METAR :
  • 251830Z 32003KT 9999 FEW030 21/18 Q1017 NOSIG

EXPIRED METARs :
  • 251800Z VRB02KT 9999 FEW030 22/18 Q1017 NOSIG
  • 251730Z VRB02KT 9999 SCT043 22/18 Q1017 NOSIG
  • 251700Z 06004KT 9999 SCT043 23/18 Q1016 NOSIG
  • 251630Z 03004KT 9999 FEW037 SCT047 23/18 Q1017 NOSIG
  • 251600Z 02008KT 9999 FEW033TCU SCT043 23/17 Q1016 NOSIG

TAF TAF LQBK
Valid from the 25 at 18:00 until the 26 at 18:00 UTC


251700Z 2518/2618 VRB02KT 9999 SCT040 TX27/2613Z TN15/2604Z
TEMPO 2609/2618 -SHRA FEW030TCU SCT040
PROB30
TEMPO 2610/2618 05010KT TSRA FEW030CB SCT040
No reported NOTAMs for that airfield.



MET'MAP, your aeronautical weather chart ! - Copyright ORBIFLY December 2007 - Disclaimer

ORBIFLY MET'MAP TEAM :

Programming & Development : Alexandra Zaïnal
Concept & Development : Baudouin d'Aumeries
Co-Development & Prog : Marc-Olivier Méhu
Technical & hardware support : Manuel Goepfert

Contact : metmap@orbifly.com




SOURCES & CREDITS :

   NOAA